Time;durP1;ratioP1;P1;durP2;ratioP2;P2;SDS_P1;SDS_P2;PMS_P1;PMS_P2;Temp;Humidity;BMP_temperature;BMP_pressure;BME280_temperature;BME280_humidity;BME280_pressure;Samples;Min_cycle;Max_cycle;Signal;HPM_P1;HPM_P2
2022/10/20 00:00:40;;;;;;;11.03;4.77;;;8.20;99.90;;;;;;4999009;28;20042;-79
2022/10/20 00:03:06;;;;;;;12.45;4.60;;;8.00;99.90;;;;;;4983732;28;20038;-79
2022/10/20 00:05:31;;;;;;;7.03;4.10;;;8.50;99.90;;;;;;4995730;28;20039;-79
2022/10/20 00:07:57;;;;;;;7.90;4.40;;;8.00;99.90;;;;;;5000779;28;20038;-80
2022/10/20 00:10:23;;;;;;;10.47;4.30;;;7.90;99.90;;;;;;5002234;28;20057;-80
2022/10/20 00:12:48;;;;;;;6.80;4.18;;;7.90;99.90;;;;;;5004280;28;20390;-80
2022/10/20 00:15:14;;;;;;;12.20;5.03;;;7.90;99.90;;;;;;5000125;28;20045;-80
2022/10/20 00:17:40;;;;;;;7.67;4.67;;;7.90;99.90;;;;;;4990969;28;20516;-80
2022/10/20 00:20:06;;;;;;;10.13;4.25;;;7.80;99.90;;;;;;4998338;28;20361;-79
2022/10/20 00:22:32;;;;;;;8.43;4.15;;;7.80;99.90;;;;;;4986449;28;20133;-80
2022/10/20 00:24:57;;;;;;;7.13;4.50;;;7.80;99.90;;;;;;5012427;28;20120;-80
2022/10/20 00:27:23;;;;;;;9.40;4.60;;;7.80;99.90;;;;;;4989015;28;20096;-80
2022/10/20 00:29:49;;;;;;;11.07;4.33;;;7.80;99.90;;;;;;4979893;28;20038;-80
2022/10/20 00:32:15;;;;;;;9.07;4.07;;;7.70;99.90;;;;;;5002651;28;20038;-80
2022/10/20 00:34:40;;;;;;;11.07;4.78;;;7.70;99.90;;;;;;5002768;28;20034;-80
2022/10/20 00:37:06;;;;;;;9.48;4.53;;;7.70;99.90;;;;;;5007378;28;20121;-80
2022/10/20 00:39:32;;;;;;;9.17;5.03;;;7.60;99.90;;;;;;4986407;28;20041;-80
2022/10/20 00:42:01;;;;;;;7.87;4.40;;;7.70;99.90;;;;;;5002942;28;20070;-80
2022/10/20 00:44:56;;;;;;;10.13;4.70;;;8.10;99.90;;;;;;5000370;28;20038;-80
2022/10/20 00:47:33;;;;;;;10.23;4.82;;;7.60;99.90;;;;;;5000269;28;20077;-80
2022/10/20 00:50:10;;;;;;;;;;;7.70;99.90;;;;;;5001888;28;20046;-80
2022/10/20 00:52:37;;;;;;;9.35;4.55;;;7.60;99.90;;;;;;4987016;28;19918;-80
2022/10/20 00:55:04;;;;;;;9.55;4.38;;;7.50;99.90;;;;;;4985404;28;20034;-80
2022/10/20 00:57:31;;;;;;;9.50;4.85;;;7.60;99.90;;;;;;5005709;28;20568;-80
2022/10/20 00:59:57;;;;;;;9.25;4.38;;;7.60;99.90;;;;;;4997985;28;20451;-80
2022/10/20 01:02:23;;;;;;;7.85;4.60;;;7.50;99.90;;;;;;4997640;28;20121;-80
2022/10/20 01:04:49;;;;;;;13.63;4.20;;;7.80;99.90;;;;;;5006968;28;20033;-80
2022/10/20 01:07:15;;;;;;;10.77;4.88;;;7.50;99.90;;;;;;4999721;28;20064;-80
2022/10/20 01:09:41;;;;;;;8.00;4.30;;;7.90;99.90;;;;;;5008634;28;20037;-80
2022/10/20 01:12:25;;;;;;;7.80;4.18;;;7.50;99.90;;;;;;4985245;28;20313;-80
2022/10/20 01:14:54;;;;;;;11.85;4.55;;;7.50;99.90;;;;;;5004121;28;20073;-80
2022/10/20 01:17:46;;;;;;;12.38;4.85;;;7.40;99.90;;;;;;4998644;28;20042;-80
2022/10/20 01:20:21;;;;;;;9.50;4.20;;;7.40;99.90;;;;;;4985070;28;20039;-80
2022/10/20 01:23:05;;;;;;;6.63;4.00;;;7.40;99.90;;;;;;4994055;28;20038;-80
2022/10/20 01:25:52;;;;;;;10.30;4.22;;;7.40;99.90;;;;;;5001841;28;20034;-80
2022/10/20 01:28:51;;;;;;;7.90;4.45;;;7.40;99.90;;;;;;5006432;28;20042;-80
2022/10/20 01:31:35;;;;;;;8.05;4.85;;;7.40;99.90;;;;;;4984767;28;20046;-80
2022/10/20 01:34:34;;;;;;;9.48;4.20;;;7.50;99.90;;;;;;5006055;28;20498;-80
2022/10/20 01:37:16;;;;;;;8.48;4.57;;;7.30;99.90;;;;;;5000957;28;20073;-80
2022/10/20 01:39:52;;;;;;;7.93;4.43;;;7.30;99.90;;;;;;4995764;28;20113;-80
2022/10/20 01:42:25;;;;;;;9.68;3.70;;;7.30;99.90;;;;;;4996551;28;20042;-80
2022/10/20 01:44:55;;;;;;;10.02;4.18;;;7.30;99.90;;;;;;5003342;28;20034;-80
2022/10/20 01:47:25;;;;;;;13.23;4.45;;;7.30;99.90;;;;;;5007588;28;20046;-80
2022/10/20 01:49:52;;;;;;;13.30;4.88;;;7.20;99.90;;;;;;5002689;28;20065;-80
2022/10/20 01:52:19;;;;;;;10.25;4.70;;;7.20;99.90;;;;;;4998344;28;20049;-80
2022/10/20 01:54:45;;;;;;;10.13;4.57;;;7.20;99.90;;;;;;5003736;28;20040;-80
2022/10/20 01:57:27;;;;;;;11.70;5.00;;;7.20;99.90;;;;;;4982382;28;20142;-80
2022/10/20 02:00:10;;;;;;;6.18;4.47;;;7.20;99.90;;;;;;4998476;28;20045;-80
2022/10/20 02:02:42;;;;;;;7.97;4.75;;;7.10;99.90;;;;;;5002979;28;20038;-80
2022/10/20 02:05:13;;;;;;;6.72;4.35;;;7.10;99.90;;;;;;4997362;28;20034;-80
2022/10/20 02:07:41;;;;;;;10.82;4.85;;;7.10;99.90;;;;;;5000527;28;20041;-80
2022/10/20 02:10:24;;;;;;;12.10;5.15;;;7.10;99.90;;;;;;4981699;28;20117;-79
2022/10/20 02:12:57;;;;;;;8.90;4.45;;;7.30;99.90;;;;;;4987169;28;20045;-80
2022/10/20 02:15:25;;;;;;;10.20;4.95;;;7.10;99.90;;;;;;4993318;28;20042;-80
2022/10/20 02:17:56;;;;;;;8.90;4.43;;;7.00;99.90;;;;;;4981771;28;20041;-81
2022/10/20 02:20:22;;;;;;;11.18;4.93;;;7.10;99.90;;;;;;5000385;28;20037;-80
2022/10/20 02:22:49;;;;;;;11.57;5.50;;;7.00;99.90;;;;;;4969297;28;20034;-80
2022/10/20 02:25:14;;;;;;;9.82;4.50;;;7.00;99.90;;;;;;4981979;28;20077;-81
2022/10/20 02:27:45;;;;;;;11.65;4.63;;;7.00;99.90;;;;;;4996016;28;20073;-81
2022/10/20 02:30:14;;;;;;;10.25;5.10;;;7.00;99.90;;;;;;5005158;28;20093;-80
2022/10/20 02:32:42;;;;;;;9.63;5.28;;;7.40;99.90;;;;;;4982084;28;20053;-80
2022/10/20 02:35:13;;;;;;;10.45;4.45;;;7.00;99.90;;;;;;4984086;28;20490;-81
2022/10/20 02:37:39;;;;;;;9.10;4.78;;;6.90;99.90;;;;;;4976689;28;20121;-80
2022/10/20 02:40:05;;;;;;;11.15;5.10;;;7.50;99.90;;;;;;5003520;28;20042;-80
2022/10/20 02:42:31;;;;;;;7.28;4.30;;;6.90;99.90;;;;;;5004016;28;20104;-80
2022/10/20 02:44:56;;;;;;;11.37;4.70;;;6.90;99.90;;;;;;4994838;28;20042;-81
2022/10/20 02:47:22;;;;;;;9.87;5.47;;;6.90;99.90;;;;;;5000675;28;20046;-80
2022/10/20 02:49:48;;;;;;;10.37;5.17;;;6.90;99.90;;;;;;4981363;28;20101;-81
2022/10/20 02:52:14;;;;;;;12.40;5.35;;;7.20;99.90;;;;;;4982132;28;20129;-80
2022/10/20 02:54:40;;;;;;;10.85;5.13;;;6.90;99.90;;;;;;4999797;28;20452;-81
2022/10/20 02:57:06;;;;;;;11.70;4.95;;;6.90;99.90;;;;;;4999606;28;20128;-80
2022/10/20 02:59:32;;;;;;;10.77;5.37;;;7.70;99.90;;;;;;5004794;28;20128;-80
2022/10/20 03:01:58;;;;;;;9.70;5.20;;;6.90;99.90;;;;;;5005333;28;20035;-80
2022/10/20 03:04:23;;;;;;;8.00;4.67;;;6.90;99.90;;;;;;4981860;28;20390;-80
2022/10/20 03:06:49;;;;;;;10.15;5.32;;;6.80;99.90;;;;;;4986371;28;20368;-80
2022/10/20 03:09:15;;;;;;;11.53;5.10;;;6.80;99.90;;;;;;4982766;28;20041;-80
2022/10/20 03:11:41;;;;;;;9.17;5.30;;;6.80;99.90;;;;;;4981392;28;20035;-80
2022/10/20 03:14:07;;;;;;;10.20;5.45;;;7.50;99.90;;;;;;5004424;28;20328;-80
2022/10/20 03:16:33;;;;;;;12.10;5.32;;;6.80;99.90;;;;;;5002870;28;20065;-80
2022/10/20 03:18:59;;;;;;;10.88;6.00;;;7.60;99.90;;;;;;4998060;28;20043;-80
2022/10/20 03:21:25;;;;;;;10.80;5.07;;;6.80;99.90;;;;;;4991159;28;20121;-81
2022/10/20 03:23:50;;;;;;;11.97;5.63;;;6.80;99.90;;;;;;5001645;28;20034;-81
2022/10/20 03:26:16;;;;;;;10.83;5.50;;;6.70;99.90;;;;;;5003299;28;20277;-80
2022/10/20 03:28:42;;;;;;;11.23;6.17;;;7.50;99.90;;;;;;5004237;28;20049;-80
2022/10/20 03:31:08;;;;;;;9.30;5.35;;;6.70;99.90;;;;;;5013239;28;20094;-81
2022/10/20 03:33:33;;;;;;;11.35;5.38;;;6.70;99.90;;;;;;5002756;28;20036;-81
2022/10/20 03:35:59;;;;;;;12.98;5.70;;;6.70;99.90;;;;;;5000920;28;20072;-80
2022/10/20 03:38:25;;;;;;;11.95;6.13;;;6.70;99.90;;;;;;4998191;28;20046;-80
2022/10/20 03:40:51;;;;;;;12.33;5.60;;;6.70;99.90;;;;;;5001143;28;21931;-81
2022/10/20 03:43:16;;;;;;;14.27;6.57;;;7.30;99.90;;;;;;4998779;28;20280;-80
2022/10/20 03:45:43;;;;;;;11.77;5.43;;;6.70;99.90;;;;;;4986007;28;20133;-80
2022/10/20 03:48:10;;;;;;;11.27;5.68;;;6.70;99.90;;;;;;4992319;28;20540;-81
2022/10/20 03:50:40;;;;;;;12.63;5.88;;;6.60;99.90;;;;;;5003481;28;20124;-80
2022/10/20 03:53:07;;;;;;;13.30;5.80;;;6.60;99.90;;;;;;4981115;28;20128;-81
2022/10/20 03:55:33;;;;;;;10.23;6.25;;;6.60;99.90;;;;;;5004265;28;20049;-80
2022/10/20 03:57:58;;;;;;;13.00;6.03;;;6.60;99.90;;;;;;5002883;28;20057;-80
2022/10/20 04:00:24;;;;;;;13.30;6.10;;;6.60;99.90;;;;;;4991174;28;20038;-80
2022/10/20 04:02:50;;;;;;;14.83;7.07;;;7.30;99.90;;;;;;4982180;28;20821;-80
2022/10/20 04:05:18;;;;;;;12.30;6.45;;;6.60;99.90;;;;;;5000213;28;20061;-80
2022/10/20 04:07:45;;;;;;;12.60;6.45;;;6.60;99.90;;;;;;4981799;28;20100;-81
2022/10/20 04:10:14;;;;;;;11.50;6.53;;;5.30;99.90;;;;;;4990566;28;20037;-80
2022/10/20 04:12:43;;;;;;;12.77;7.15;;;6.60;99.90;;;;;;4983332;28;20085;-82
2022/10/20 04:15:09;;;;;;;11.70;6.72;;;6.60;99.90;;;;;;5000245;28;20034;-80
2022/10/20 04:17:38;;;;;;;11.35;7.03;;;6.60;99.90;;;;;;4991574;28;20057;-82
2022/10/20 04:20:05;;;;;;;11.25;6.88;;;6.60;99.90;;;;;;4999611;28;20041;-82
2022/10/20 04:22:31;;;;;;;13.40;6.90;;;6.60;99.90;;;;;;5002303;28;20038;-82
2022/10/20 04:24:56;;;;;;;13.75;7.35;;;6.60;99.90;;;;;;4997928;28;20039;-82
2022/10/20 04:27:22;;;;;;;15.50;7.85;;;6.60;99.90;;;;;;4988823;28;20042;-80
2022/10/20 04:29:48;;;;;;;11.77;7.00;;;7.20;99.90;;;;;;4985027;28;20049;-79
2022/10/20 04:32:13;;;;;;;13.67;7.63;;;6.60;99.90;;;;;;4983583;28;20042;-80
2022/10/20 04:34:39;;;;;;;12.43;7.57;;;6.60;99.90;;;;;;4990757;28;20049;-81
2022/10/20 04:37:05;;;;;;;15.17;7.60;;;6.60;99.90;;;;;;5002926;28;20040;-79
2022/10/20 04:39:30;;;;;;;12.40;6.90;;;6.60;99.90;;;;;;5007020;28;20042;-80
2022/10/20 04:41:56;;;;;;;15.80;7.70;;;7.50;99.90;;;;;;5002566;28;20487;-79
2022/10/20 04:44:22;;;;;;;16.57;7.63;;;6.60;99.90;;;;;;4991136;28;20324;-78
2022/10/20 04:46:47;;;;;;;12.77;7.50;;;6.60;99.90;;;;;;5002598;28;20285;-80
2022/10/20 04:49:13;;;;;;;12.43;7.33;;;6.50;99.90;;;;;;5009891;28;20453;-80
2022/10/20 04:51:39;;;;;;;13.68;7.38;;;6.50;99.90;;;;;;5002412;28;20045;-80
2022/10/20 04:54:05;;;;;;;19.77;8.20;;;6.50;99.90;;;;;;4986385;28;20118;-80
2022/10/20 04:56:30;;;;;;;15.47;8.20;;;7.10;99.90;;;;;;4998834;28;20052;-79
2022/10/20 04:58:57;;;;;;;12.80;7.72;;;7.20;99.90;;;;;;4954912;28;20113;-80
2022/10/20 05:01:26;;;;;;;12.20;7.95;;;6.50;99.90;;;;;;5002067;28;20085;-80
2022/10/20 05:03:52;;;;;;;17.25;8.45;;;6.50;99.90;;;;;;4995300;28;20445;-79
2022/10/20 05:06:21;;;;;;;17.08;8.18;;;6.40;99.90;;;;;;5001121;28;20038;-79
2022/10/20 05:08:48;;;;;;;14.95;8.38;;;6.50;99.90;;;;;;4998538;28;20052;-80
2022/10/20 05:11:15;;;;;;;16.70;7.80;;;6.50;99.90;;;;;;4970173;28;20045;-79
2022/10/20 05:13:41;;;;;;;;;;;6.40;99.90;;;;;;4983635;28;20064;-79
2022/10/20 05:16:07;;;;;;;15.15;8.27;;;6.50;99.90;;;;;;4979575;28;19923;-80
2022/10/20 05:18:34;;;;;;;15.57;8.13;;;7.20;99.90;;;;;;4982713;28;20042;-80
2022/10/20 05:21:15;;;;;;;14.68;9.15;;;6.40;99.90;;;;;;4983356;28;21221;-80
2022/10/20 05:23:42;;;;;;;16.50;9.63;;;6.40;99.90;;;;;;5003660;28;20041;-80
2022/10/20 05:26:11;;;;;;;14.90;9.30;;;6.40;99.90;;;;;;5003711;28;20088;-80
2022/10/20 05:28:37;;;;;;;16.23;9.18;;;6.40;99.90;;;;;;4996962;28;20034;-80
2022/10/20 05:31:05;;;;;;;14.48;8.73;;;6.50;99.90;;;;;;4999391;28;20045;-80
2022/10/20 05:33:31;;;;;;;17.48;9.43;;;6.40;99.90;;;;;;4998185;28;20046;-80
2022/10/20 05:35:57;;;;;;;15.18;9.57;;;6.30;99.90;;;;;;4985704;28;20379;-80
2022/10/20 05:38:23;;;;;;;17.52;8.95;;;6.30;99.90;;;;;;4997174;28;20504;-80
2022/10/20 05:40:49;;;;;;;16.50;8.95;;;6.30;99.90;;;;;;4978898;28;20034;-80
2022/10/20 05:43:15;;;;;;;17.60;9.63;;;6.30;99.90;;;;;;4982368;28;20034;-80
2022/10/20 05:45:40;;;;;;;17.00;9.63;;;6.30;99.90;;;;;;4994154;28;20285;-80
2022/10/20 05:48:06;;;;;;;19.20;10.65;;;6.30;99.90;;;;;;4991602;28;20093;-80
2022/10/20 05:50:32;;;;;;;14.80;8.90;;;6.30;99.90;;;;;;4996573;28;20070;-77
2022/10/20 05:52:58;;;;;;;15.63;9.15;;;6.30;99.90;;;;;;4997006;28;20046;-78
2022/10/20 05:55:25;;;;;;;19.15;9.52;;;6.70;99.90;;;;;;4992605;28;20081;-78
2022/10/20 05:57:50;;;;;;;18.15;10.15;;;6.30;99.90;;;;;;4994431;28;20108;-78
2022/10/20 06:00:23;;;;;;;18.92;9.93;;;6.30;99.90;;;;;;4994636;28;20042;-78
2022/10/20 06:02:48;;;;;;;17.13;10.10;;;6.30;99.90;;;;;;4997059;28;20049;-78
2022/10/20 06:05:14;;;;;;;17.20;10.67;;;7.00;99.90;;;;;;4996106;28;20038;-78
2022/10/20 06:07:40;;;;;;;18.43;10.17;;;6.30;99.90;;;;;;4980779;28;20041;-78
2022/10/20 06:10:06;;;;;;;17.35;9.27;;;6.30;99.90;;;;;;4996669;28;20482;-78
2022/10/20 06:12:33;;;;;;;22.05;10.38;;;6.30;99.90;;;;;;4992882;28;20046;-78
2022/10/20 06:14:59;;;;;;;19.65;10.60;;;6.30;99.90;;;;;;4997113;28;20387;-78
2022/10/20 06:17:25;;;;;;;19.17;10.23;;;6.30;99.90;;;;;;4981824;28;20034;-77
2022/10/20 06:19:50;;;;;;;20.53;10.70;;;6.30;99.90;;;;;;4984495;28;20065;-78
2022/10/20 06:22:16;;;;;;;16.97;10.13;;;6.30;99.90;;;;;;4997492;28;20034;-78
2022/10/20 06:24:42;;;;;;;19.90;10.35;;;7.00;99.90;;;;;;5004465;28;20041;-78
2022/10/20 06:27:07;;;;;;;25.57;9.87;;;6.40;99.90;;;;;;4983076;28;20509;-77
2022/10/20 06:29:33;;;;;;;20.37;9.37;;;6.30;99.90;;;;;;4971597;28;20489;-78
2022/10/20 06:31:59;;;;;;;20.60;10.13;;;6.90;99.90;;;;;;4982351;28;20376;-78
2022/10/20 06:34:25;;;;;;;19.27;10.77;;;6.40;99.90;;;;;;4984436;28;20128;-78
2022/10/20 06:36:51;;;;;;;19.15;9.48;;;7.00;99.90;;;;;;4996891;28;20038;-77
2022/10/20 06:39:18;;;;;;;;;;;6.40;99.90;;;;;;4992398;28;20089;-78
2022/10/20 06:41:52;;;;;;;18.90;10.00;;;6.50;99.90;;;;;;4998111;28;19917;-78
2022/10/20 06:44:22;;;;;;;17.70;9.77;;;6.50;99.90;;;;;;4998442;28;20046;-78
2022/10/20 06:46:51;;;;;;;19.48;9.52;;;6.50;99.90;;;;;;5002213;28;20034;-78
2022/10/20 06:49:16;;;;;;;15.82;9.88;;;6.60;99.90;;;;;;4995412;28;20045;-78
2022/10/20 06:51:42;;;;;;;16.80;10.10;;;6.60;99.90;;;;;;5003338;28;20045;-78
2022/10/20 06:54:08;;;;;;;20.10;10.20;;;6.60;99.90;;;;;;4981656;28;20058;-78
2022/10/20 06:56:35;;;;;;;19.27;10.52;;;6.60;99.90;;;;;;4979944;28;20116;-78
2022/10/20 06:59:01;;;;;;;16.80;9.63;;;6.70;99.90;;;;;;5000818;28;20042;-78
2022/10/20 07:01:30;;;;;;;18.10;9.70;;;6.90;99.90;;;;;;4997950;28;20394;-78
2022/10/20 07:03:58;;;;;;;19.02;11.32;;;6.70;99.90;;;;;;4997157;28;20076;-78
2022/10/20 07:06:27;;;;;;;17.20;9.27;;;6.80;99.90;;;;;;4978524;28;20075;-78
2022/10/20 07:08:55;;;;;;;16.42;9.65;;;6.80;99.90;;;;;;4999460;28;20034;-78
2022/10/20 07:11:23;;;;;;;20.08;10.52;;;6.90;99.90;;;;;;5001078;28;20106;-78
2022/10/20 07:13:49;;;;;;;16.45;9.13;;;6.90;99.90;;;;;;5000444;28;20054;-78
2022/10/20 07:16:20;;;;;;;18.92;9.48;;;6.90;99.90;;;;;;5004690;28;20038;-78
2022/10/20 07:18:46;;;;;;;18.88;10.48;;;7.00;99.90;;;;;;4996594;28;20410;-78
2022/10/20 07:21:15;;;;;;;17.42;10.48;;;7.00;99.90;;;;;;4994706;28;20038;-78
2022/10/20 07:23:41;;;;;;;18.80;9.63;;;7.50;99.90;;;;;;4997377;28;20046;-78
2022/10/20 07:26:14;;;;;;;;;;;7.30;99.90;;;;;;5001782;28;20069;-78
2022/10/20 07:28:43;;;;;;;17.77;9.32;;;7.10;99.90;;;;;;4993531;28;20545;-78
2022/10/20 07:31:12;;;;;;;14.05;9.18;;;7.20;99.90;;;;;;5003176;28;20035;-78
2022/10/20 07:33:38;;;;;;;18.48;10.63;;;7.20;99.90;;;;;;4985795;28;20030;-78
2022/10/20 07:36:20;;;;;;;15.70;8.95;;;7.30;99.90;;;;;;4997168;28;20463;-78
2022/10/20 07:38:46;;;;;;;17.90;9.85;;;7.20;99.90;;;;;;4983069;28;20076;-78
2022/10/20 07:41:13;;;;;;;17.25;11.35;;;7.30;99.90;;;;;;4995742;28;20034;-78
2022/10/20 07:43:39;;;;;;;18.85;10.88;;;7.20;99.90;;;;;;4971054;28;20061;-78
2022/10/20 07:46:06;;;;;;;15.10;9.38;;;7.20;99.90;;;;;;4992237;28;20034;-78
2022/10/20 07:48:32;;;;;;;21.02;11.00;;;7.20;99.90;;;;;;4981191;28;20050;-78
2022/10/20 07:51:25;;;;;;;16.35;9.10;;;7.30;99.90;;;;;;5001912;28;20563;-78
2022/10/20 07:53:58;;;;;;;14.20;8.90;;;7.20;99.90;;;;;;4980816;28;20129;-78
2022/10/20 07:56:28;;;;;;;15.57;9.65;;;7.30;99.90;;;;;;4999678;28;20061;-78
2022/10/20 07:58:54;;;;;;;14.55;9.27;;;7.40;99.90;;;;;;4994942;28;20125;-79
2022/10/20 08:01:19;;;;;;;16.98;10.40;;;7.50;99.90;;;;;;4997318;28;20038;-79
2022/10/20 08:03:45;;;;;;;17.27;9.73;;;7.40;99.90;;;;;;4977214;28;20080;-79
2022/10/20 08:06:11;;;;;;;16.50;10.02;;;7.50;99.90;;;;;;5000681;28;20080;-79
2022/10/20 08:08:37;;;;;;;17.40;9.70;;;7.60;99.90;;;;;;4995999;28;20074;-80
2022/10/20 08:11:03;;;;;;;18.77;9.80;;;7.60;99.90;;;;;;4986724;28;20105;-79
2022/10/20 08:13:29;;;;;;;18.67;10.40;;;7.70;99.90;;;;;;4998323;28;20046;-79
2022/10/20 08:15:55;;;;;;;16.20;9.00;;;7.80;99.90;;;;;;5005501;28;20521;-79
2022/10/20 08:18:21;;;;;;;14.90;9.15;;;7.90;99.90;;;;;;5001826;28;20034;-79
2022/10/20 08:20:47;;;;;;;12.57;8.53;;;8.20;99.90;;;;;;4999357;28;20383;-79
2022/10/20 08:23:13;;;;;;;12.98;7.82;;;8.10;99.90;;;;;;5001713;28;20300;-79
2022/10/20 08:25:39;;;;;;;13.95;8.48;;;8.10;99.90;;;;;;4987293;28;20038;-79
2022/10/20 08:28:05;;;;;;;15.00;9.38;;;8.20;99.90;;;;;;5005819;28;20500;-79
2022/10/20 08:30:31;;;;;;;14.95;9.23;;;8.30;99.90;;;;;;4983982;28;20448;-79
2022/10/20 08:32:57;;;;;;;14.23;8.18;;;8.30;99.90;;;;;;5000649;28;20054;-79
2022/10/20 08:35:23;;;;;;;13.55;8.38;;;8.40;99.90;;;;;;4995641;28;20039;-79
2022/10/20 08:37:49;;;;;;;14.50;9.05;;;8.50;99.90;;;;;;4982183;28;20041;-79
2022/10/20 08:40:18;;;;;;;12.23;8.45;;;8.70;99.90;;;;;;4983644;28;20402;-79
2022/10/20 08:42:45;;;;;;;12.32;6.93;;;8.80;99.90;;;;;;4982987;28;20037;-79
2022/10/20 08:45:15;;;;;;;12.95;8.63;;;9.00;99.90;;;;;;4979622;28;20131;-79
2022/10/20 08:47:42;;;;;;;16.08;7.75;;;9.00;99.90;;;;;;4992485;28;20054;-79
2022/10/20 08:50:12;;;;;;;10.93;7.32;;;9.00;99.90;;;;;;4997586;28;20129;-79
2022/10/20 08:52:40;;;;;;;11.10;7.28;;;9.00;99.90;;;;;;4983806;28;20050;-79
2022/10/20 08:55:07;;;;;;;11.40;7.75;;;9.20;99.90;;;;;;5009009;28;20041;-79
2022/10/20 08:57:34;;;;;;;12.23;7.32;;;9.30;99.90;;;;;;4984990;28;20545;-79
2022/10/20 09:00:17;;;;;;;12.90;7.57;;;9.50;99.90;;;;;;4998541;28;20046;-79
2022/10/20 09:02:43;;;;;;;10.90;7.50;;;9.50;99.90;;;;;;4983133;28;20462;-79
2022/10/20 09:05:10;;;;;;;11.60;6.93;;;9.80;99.90;;;;;;4995659;28;20113;-79
2022/10/20 09:07:37;;;;;;;9.00;7.00;;;10.00;99.90;;;;;;5001459;28;20497;-79
2022/10/20 09:10:15;;;;;;;10.35;7.20;;;10.10;99.90;;;;;;4983244;28;20052;-79
2022/10/20 09:12:43;;;;;;;9.10;6.53;;;10.50;99.90;;;;;;4997106;28;20052;-79
2022/10/20 09:15:11;;;;;;;10.25;7.10;;;10.90;99.90;;;;;;4999308;28;20467;-79
2022/10/20 09:17:56;;;;;;;11.75;7.03;;;11.10;99.90;;;;;;4990757;28;20050;-79
2022/10/20 09:20:28;;;;;;;9.70;6.93;;;11.50;99.90;;;;;;4999572;28;20135;-79
2022/10/20 09:22:54;;;;;;;9.23;6.28;;;11.90;99.90;;;;;;4999722;28;20038;-79
2022/10/20 09:25:24;;;;;;;8.95;6.15;;;12.00;99.90;;;;;;4999595;28;20109;-79
2022/10/20 09:27:50;;;;;;;8.55;6.10;;;12.00;99.90;;;;;;4978555;28;20100;-79
2022/10/20 09:30:28;;;;;;;8.25;6.15;;;11.90;99.90;;;;;;4972800;28;20137;-79
2022/10/20 09:32:54;;;;;;;9.82;6.50;;;11.70;99.90;;;;;;4992118;28;20042;-79
2022/10/20 09:35:22;;;;;;;9.52;6.57;;;11.70;99.90;;;;;;4981739;28;20526;-79
2022/10/20 09:37:59;;;;;;;11.13;6.20;;;11.60;99.90;;;;;;4979921;28;20767;-79
2022/10/20 09:40:26;;;;;;;9.55;6.35;;;11.60;99.90;;;;;;5001662;28;20375;-79
2022/10/20 09:42:54;;;;;;;;;;;11.60;99.90;;;;;;5005149;28;20498;-78
2022/10/20 09:45:21;;;;;;;8.88;6.28;;;11.50;99.90;;;;;;4980315;28;19918;-78
2022/10/20 09:47:52;;;;;;;7.82;6.15;;;11.50;99.90;;;;;;4996252;28;20121;-78
2022/10/20 09:50:26;;;;;;;8.35;5.95;;;11.40;99.90;;;;;;4999648;28;20037;-79
2022/10/20 09:52:52;;;;;;;9.27;6.35;;;11.30;99.90;;;;;;4995362;28;20536;-78
2022/10/20 09:55:27;;;;;;;12.02;5.80;;;11.30;99.90;;;;;;4978722;28;20081;-78
2022/10/20 09:57:55;;;;;;;8.43;6.70;;;11.30;99.90;;;;;;4998428;28;20438;-79
2022/10/20 10:00:23;;;;;;;8.00;6.10;;;11.20;99.90;;;;;;4993525;28;20034;-79
2022/10/20 10:03:13;;;;;;;7.90;6.45;;;11.30;99.90;;;;;;4972373;28;20034;-79
2022/10/20 10:05:39;;;;;;;7.68;6.28;;;11.30;99.90;;;;;;4977490;28;20042;-79
2022/10/20 10:08:11;;;;;;;9.15;5.75;;;11.20;99.90;;;;;;4999071;28;20449;-78
2022/10/20 10:10:37;;;;;;;10.13;6.10;;;11.20;99.90;;;;;;4983378;28;20092;-78
2022/10/20 10:13:04;;;;;;;7.80;5.93;;;11.30;99.90;;;;;;4966797;28;20034;-78
2022/10/20 10:15:35;;;;;;;8.82;5.93;;;11.40;99.90;;;;;;4982799;28;20049;-79
2022/10/20 10:18:19;;;;;;;10.80;6.25;;;11.50;99.90;;;;;;4990426;28;20038;-79
2022/10/20 10:20:45;;;;;;;8.50;6.57;;;11.70;99.90;;;;;;5002495;28;20033;-79
2022/10/20 10:23:23;;;;;;;9.23;6.40;;;11.90;99.90;;;;;;4980685;28;20042;-79
2022/10/20 10:25:50;;;;;;;8.85;5.95;;;12.00;99.90;;;;;;4996315;28;20038;-78
2022/10/20 10:28:38;;;;;;;7.82;6.03;;;12.30;99.90;;;;;;4983201;28;20061;-78
2022/10/20 10:31:20;;;;;;;8.27;5.50;;;12.50;99.90;;;;;;5005632;28;20105;-78
2022/10/20 10:33:49;;;;;;;8.65;5.10;;;12.80;99.90;;;;;;4979750;28;20051;-79
2022/10/20 10:36:32;;;;;;;9.07;6.10;;;12.90;99.90;;;;;;4992981;28;20081;-79
2022/10/20 10:38:58;;;;;;;8.18;5.95;;;12.90;99.90;;;;;;5003005;28;20037;-79
2022/10/20 10:41:35;;;;;;;8.43;5.85;;;13.00;99.90;;;;;;4972447;28;20042;-78
2022/10/20 10:44:12;;;;;;;10.43;5.85;;;13.50;99.90;;;;;;4999537;28;20088;-79
2022/10/20 10:46:58;;;;;;;;;;;14.40;99.90;;;;;;5005731;28;20052;-80
2022/10/20 10:49:37;;;;;;;8.07;5.30;;;15.00;99.90;;;;;;4977320;28;19925;-78
2022/10/20 10:52:41;;;;;;;7.45;4.82;;;15.30;99.90;;;;;;5000837;28;20042;-78
2022/10/20 10:55:45;;;;;;;9.02;5.60;;;15.30;99.90;;;;;;4980048;28;20116;-78
2022/10/20 10:58:31;;;;;;;7.95;5.32;;;15.30;99.90;;;;;;4975263;28;20050;-79
2022/10/20 11:01:20;;;;;;;7.47;4.70;;;15.70;99.90;;;;;;4996104;28;20212;-79
2022/10/20 11:04:24;;;;;;;7.35;5.38;;;16.20;99.90;;;;;;4984827;28;20050;-78
2022/10/20 11:06:56;;;;;;;9.57;5.40;;;16.20;99.90;;;;;;4996200;28;20378;-78
2022/10/20 11:09:29;;;;;;;8.20;5.00;;;16.30;99.90;;;;;;4998720;28;20092;-78
2022/10/20 11:11:57;;;;;;;8.65;4.90;;;16.40;99.90;;;;;;4981168;28;20047;-78
2022/10/20 11:14:42;;;;;;;6.07;4.80;;;16.20;99.90;;;;;;4984504;28;20037;-78
2022/10/20 11:17:38;;;;;;;5.18;4.68;;;16.00;99.90;;;;;;4994959;28;20111;-78
2022/10/20 11:20:13;;;;;;;8.43;5.13;;;15.60;99.90;;;;;;4974395;28;20041;-78
2022/10/20 11:22:52;;;;;;;9.73;5.47;;;15.40;99.90;;;;;;5004449;28;20037;-78
2022/10/20 11:25:28;;;;;;;7.32;4.90;;;15.40;99.90;;;;;;4994122;28;20486;-78
2022/10/20 11:27:55;;;;;;;7.10;4.80;;;15.60;99.90;;;;;;4999357;28;20038;-78
2022/10/20 11:30:21;;;;;;;6.70;4.70;;;15.70;99.90;;;;;;5001233;28;20049;-78
2022/10/20 11:32:50;;;;;;;;;;;15.60;99.90;;;;;;4994891;28;20050;-78
2022/10/20 11:35:27;;;;;;;6.72;5.03;;;15.30;99.90;;;;;;4990396;28;19924;-78
2022/10/20 11:38:22;;;;;;;6.68;5.07;;;15.20;99.90;;;;;;5014939;28;20048;-78
2022/10/20 11:41:02;;;;;;;6.00;4.78;;;15.20;99.90;;;;;;4996986;28;20516;-79
2022/10/20 11:43:51;;;;;;;9.32;5.10;;;15.10;99.90;;;;;;4990227;28;20038;-79
2022/10/20 11:46:46;;;;;;;5.68;4.65;;;15.00;99.90;;;;;;5001217;28;20083;-79
2022/10/20 11:49:12;;;;;;;9.10;5.10;;;14.90;99.90;;;;;;4998097;28;20101;-79
2022/10/20 11:51:54;;;;;;;7.70;5.38;;;14.90;99.90;;;;;;4980991;28;20494;-79
2022/10/20 11:54:29;;;;;;;7.53;5.32;;;14.90;99.90;;;;;;4988432;28;20053;-79
2022/10/20 11:57:07;;;;;;;7.65;5.07;;;14.80;99.90;;;;;;4995388;28;20096;-79
2022/10/20 11:59:35;;;;;;;9.18;5.18;;;14.80;99.90;;;;;;5000434;28;20092;-78
2022/10/20 12:02:22;;;;;;;7.88;5.30;;;14.60;99.90;;;;;;4995878;28;20640;-79
2022/10/20 12:05:15;;;;;;;10.00;5.05;;;14.50;99.90;;;;;;4982552;28;20505;-79
2022/10/20 12:07:50;;;;;;;16.25;5.97;;;14.40;99.90;;;;;;5000234;28;20046;-79
2022/10/20 12:11:13;;;;;;;8.45;5.55;;;14.40;99.90;;;;;;5002520;28;20034;-79
2022/10/20 12:13:47;;;;;;;9.23;5.50;;;14.40;99.90;;;;;;4963588;28;20361;-79
2022/10/20 12:16:53;;;;;;;8.82;5.47;;;14.30;99.90;;;;;;4932224;28;20046;-79
2022/10/20 12:19:21;;;;;;;6.70;5.35;;;14.30;99.90;;;;;;4979779;28;20075;-78
2022/10/20 12:21:57;;;;;;;10.90;6.18;;;14.20;99.90;;;;;;4999292;28;20058;-79
2022/10/20 12:24:38;;;;;;;8.10;5.68;;;14.10;99.90;;;;;;4999559;28;20043;-79
2022/10/20 12:27:10;;;;;;;7.97;5.78;;;14.10;99.90;;;;;;4995711;28;20048;-79
2022/10/20 12:29:35;;;;;;;6.95;5.30;;;14.10;99.90;;;;;;5004454;28;20387;-76
2022/10/20 12:32:20;;;;;;;9.90;6.00;;;14.10;99.90;;;;;;5007144;28;20041;-75
2022/10/20 12:34:57;;;;;;;6.93;5.35;;;14.10;99.90;;;;;;5000308;28;20049;-75
2022/10/20 12:37:22;;;;;;;;;;;14.10;99.90;;;;;;5005658;28;20124;-76
2022/10/20 12:39:49;;;;;;;14.70;5.15;;;14.10;99.90;;;;;;5000569;28;20009;-75
2022/10/20 12:42:42;;;;;;;7.97;5.63;;;14.00;99.90;;;;;;5004756;28;20042;-76
2022/10/20 12:45:32;;;;;;;7.47;5.43;;;14.00;99.90;;;;;;5005072;28;20103;-76
2022/10/20 12:48:00;;;;;;;10.30;5.43;;;13.90;99.90;;;;;;5002399;28;20052;-76
2022/10/20 12:50:45;;;;;;;10.02;5.28;;;13.90;99.90;;;;;;5000762;28;20080;-76
2022/10/20 12:53:20;;;;;;;7.88;5.13;;;13.80;99.90;;;;;;4976382;28;20042;-76
2022/10/20 12:55:55;;;;;;;7.75;5.88;;;13.80;99.90;;;;;;4986336;28;20116;-77
2022/10/20 12:58:21;;;;;;;11.80;6.18;;;13.80;99.90;;;;;;4984669;28;20050;-76
2022/10/20 13:00:48;;;;;;;9.37;6.63;;;13.80;99.90;;;;;;5004896;28;20084;-75
2022/10/20 13:03:32;;;;;;;10.43;6.40;;;13.70;99.90;;;;;;4988856;28;20042;-75
2022/10/20 13:05:58;;;;;;;10.80;6.43;;;13.60;99.90;;;;;;5006140;28;20136;-75